Newport, AR

7:55 AM CST on January 19, 2017 (GMT -0600)
Newport | | Change Station
Active Advisory: Flood Warning

Elev 240 ft 35.64 °N, 91.18 °W | Updated 33 minutes ago

Overcast
Overcast
45 °F
Feels Like 40 °F
N
8
Wind Variable Wind from NNE

Today
High -- | Low -- °F
--% Chance of Precip.
Yesterday
High -- | Low -- °F
Precip. -- in
Pressure 29.86 in
Visibility 10.0 miles
Clouds Few 300 ft
Mostly Cloudy 1000 ft
Overcast 2500 ft
Windchill 40 °F
Dew Point 45 °F
Humidity 100%
Rainfall 0.00 in
Snow Depth Not available.
7:12 AM 5:19 PM
Waning Gibbous, 53% visible
SPECI KM19 191322Z AUTO 02007KT 10SM FEW003 BKN010 OVC025 07/07 A2986 RMK AO2 PNO $
Pressure 29.86 in
Visibility 10.0 miles
Clouds Few 300 ft
Mostly Cloudy 1000 ft
Overcast 2500 ft
Windchill 40 °F
Dew Point 45 °F
Humidity 100%
Rainfall 0.00 in
Snow Depth Not available.
7:12 AM 5:19 PM
Waning Gibbous, 53% visible
SPECI KM19 191322Z AUTO 02007KT 10SM FEW003 BKN010 OVC025 07/07 A2986 RMK AO2 PNO $

Get Your Daily Forecast Email!

Thanks for signing up!

Be on the lookout for a verification email in your inbox.

You'll start receiving the daily forecast at 8 AM.

×

10-Day Weather Forecast

Almanac

Astronomy

Jan. 19, 2017 Rise Set
Actual Time
Civil Twilight
Nautical Twilight
Astronomical Twilight
Moon
Length of Visible Light
Length of Day
Tomorrow will be .
, % of the Moon is Illuminated

Today's Extremes

State Highs State Lows

Community

WunderPhotos

Upload Photos

1,962,540 photos uploaded!

WunderBlog® & News

Nearby

Air Quality

  Air Quality AQ Index Pollutant
Not available.

Snow Depth

Station Depth Elevation

Earthquake Activity

City Distance Mag. Time & Date
Minimum magnitude displayed is 2.5.

Coastal Water Temperatures

Place Temperature

Stations

Nearby Weather Stations

Station Location Temp. Windchill Dew Point Humidity Wind Precip. Elev Updated Type
                   

Watches & Warnings

Flood Warning
Issued: 9:32 PM CST Jan. 18, 2017 – National Weather Service

The National Weather Service in Little Rock has issued a

* Flood Warning for
the Cache River near Patterson.
* Until late Friday night... or until the warning is cancelled.
* At 9:00 PM Wednesday the stage was 8.9 feet.
* Minor flooding is forecast.
* Flood stage is 9.0 feet.
* Forecast... the river is expected to rise to flood stage tonight.
* Impacts at 9.0 feet... low swampy Timberland along the river begins
to flood. Flood gates should be closed and equipment moved out of
the low grounds along the river and tributaries.


             Fld observed forecast 6 am
location stg stg day time Thu Fri Sat sun Mon

Cache River
Patterson 9 8.9 Wed 09 PM 9.0 8.9 8.7 8.8 8.7




Lat... Lon 3510 9133 3522 9128 3539 9123 3538 9113
3521 9117 3508 9122